sensor_id;sensor_type;location;lat;lon;timestamp;P1;P2;P0
26185;PMS7003;20067;48.764;9.176;2023-07-20T00:00:55;9.00;9.00;3.00
26185;PMS7003;20067;48.764;9.176;2023-07-20T00:03:21;8.75;8.75;3.25
26185;PMS7003;20067;48.764;9.176;2023-07-20T00:05:50;9.25;8.75;4.00
26185;PMS7003;20067;48.764;9.176;2023-07-20T00:08:17;8.00;7.50;2.00
26185;PMS7003;20067;48.764;9.176;2023-07-20T00:10:43;9.25;9.00;3.00
26185;PMS7003;20067;48.764;9.176;2023-07-20T00:13:09;10.50;8.00;3.00
26185;PMS7003;20067;48.764;9.176;2023-07-20T00:15:36;8.75;8.75;3.75
26185;PMS7003;20067;48.764;9.176;2023-07-20T00:18:02;9.00;9.00;2.75
26185;PMS7003;20067;48.764;9.176;2023-07-20T00:20:31;8.50;8.50;4.00
26185;PMS7003;20067;48.764;9.176;2023-07-20T00:22:57;10.00;8.25;2.00
26185;PMS7003;20067;48.764;9.176;2023-07-20T00:25:26;7.25;7.25;3.00
26185;PMS7003;20067;48.764;9.176;2023-07-20T00:27:52;8.00;8.00;3.00
26185;PMS7003;20067;48.764;9.176;2023-07-20T00:30:18;8.25;7.50;3.00
26185;PMS7003;20067;48.764;9.176;2023-07-20T00:32:44;8.00;6.75;1.75
26185;PMS7003;20067;48.764;9.176;2023-07-20T00:35:10;9.00;8.50;3.00
26185;PMS7003;20067;48.764;9.176;2023-07-20T00:37:36;9.00;9.00;2.50
26185;PMS7003;20067;48.764;9.176;2023-07-20T00:40:02;9.00;9.00;3.00
26185;PMS7003;20067;48.764;9.176;2023-07-20T00:42:32;8.00;8.00;2.00
26185;PMS7003;20067;48.764;9.176;2023-07-20T00:44:58;8.00;7.00;2.00
26185;PMS7003;20067;48.764;9.176;2023-07-20T00:47:25;9.50;8.50;2.25
26185;PMS7003;20067;48.764;9.176;2023-07-20T00:49:51;9.50;9.50;4.00
26185;PMS7003;20067;48.764;9.176;2023-07-20T00:52:18;8.50;8.00;3.50
26185;PMS7003;20067;48.764;9.176;2023-07-20T00:54:45;7.75;7.75;3.25
26185;PMS7003;20067;48.764;9.176;2023-07-20T00:57:12;7.75;7.75;3.00
26185;PMS7003;20067;48.764;9.176;2023-07-20T00:59:39;8.25;8.25;3.25
26185;PMS7003;20067;48.764;9.176;2023-07-20T01:02:05;7.25;7.25;3.50
26185;PMS7003;20067;48.764;9.176;2023-07-20T01:04:31;8.00;8.00;2.75
26185;PMS7003;20067;48.764;9.176;2023-07-20T01:12:05;7.25;7.25;3.00
26185;PMS7003;20067;48.764;9.176;2023-07-20T01:14:53;10.25;10.25;3.00
26185;PMS7003;20067;48.764;9.176;2023-07-20T01:17:19;8.75;8.00;4.00
26185;PMS7003;20067;48.764;9.176;2023-07-20T01:19:44;7.50;7.50;3.25
26185;PMS7003;20067;48.764;9.176;2023-07-20T01:30:52;9.00;8.00;4.00
26185;PMS7003;20067;48.764;9.176;2023-07-20T01:33:24;6.75;6.75;3.00
26185;PMS7003;20067;48.764;9.176;2023-07-20T01:35:57;7.00;7.00;3.00
26185;PMS7003;20067;48.764;9.176;2023-07-20T01:38:25;8.75;8.00;4.75
26185;PMS7003;20067;48.764;9.176;2023-07-20T01:40:51;7.25;7.25;3.75
26185;PMS7003;20067;48.764;9.176;2023-07-20T01:43:17;8.00;8.00;4.25
26185;PMS7003;20067;48.764;9.176;2023-07-20T01:45:43;9.00;7.75;4.00
26185;PMS7003;20067;48.764;9.176;2023-07-20T01:48:09;9.75;7.25;3.00
26185;PMS7003;20067;48.764;9.176;2023-07-20T01:50:35;7.00;7.00;3.50
26185;PMS7003;20067;48.764;9.176;2023-07-20T01:53:01;9.00;7.00;3.25
26185;PMS7003;20067;48.764;9.176;2023-07-20T01:55:27;9.00;7.50;4.00
26185;PMS7003;20067;48.764;9.176;2023-07-20T01:57:53;8.00;8.00;3.00
26185;PMS7003;20067;48.764;9.176;2023-07-20T02:00:20;9.00;7.00;3.50
26185;PMS7003;20067;48.764;9.176;2023-07-20T02:02:48;9.25;7.50;5.00
26185;PMS7003;20067;48.764;9.176;2023-07-20T02:05:14;8.75;7.25;4.25
26185;PMS7003;20067;48.764;9.176;2023-07-20T02:07:40;7.50;7.50;5.00
26185;PMS7003;20067;48.764;9.176;2023-07-20T02:10:06;8.00;8.00;5.00
26185;PMS7003;20067;48.764;9.176;2023-07-20T02:12:31;10.25;9.75;5.00
26185;PMS7003;20067;48.764;9.176;2023-07-20T02:14:57;8.25;8.25;4.00
26185;PMS7003;20067;48.764;9.176;2023-07-20T02:17:23;8.50;7.25;3.00
26185;PMS7003;20067;48.764;9.176;2023-07-20T02:19:55;10.00;10.00;5.00
26185;PMS7003;20067;48.764;9.176;2023-07-20T02:22:22;8.00;8.00;2.50
26185;PMS7003;20067;48.764;9.176;2023-07-20T02:24:48;9.25;9.25;5.00
26185;PMS7003;20067;48.764;9.176;2023-07-20T02:27:14;10.25;8.75;5.00
26185;PMS7003;20067;48.764;9.176;2023-07-20T02:29:40;10.00;7.00;4.50
26185;PMS7003;20067;48.764;9.176;2023-07-20T02:32:07;7.50;7.00;3.00
26185;PMS7003;20067;48.764;9.176;2023-07-20T02:34:33;7.75;7.00;3.00
26185;PMS7003;20067;48.764;9.176;2023-07-20T02:36:59;9.50;9.00;2.75
26185;PMS7003;20067;48.764;9.176;2023-07-20T02:39:26;11.00;8.50;3.00
26185;PMS7003;20067;48.764;9.176;2023-07-20T02:41:53;11.25;11.25;6.00
26185;PMS7003;20067;48.764;9.176;2023-07-20T02:44:18;10.00;9.00;5.00
26185;PMS7003;20067;48.764;9.176;2023-07-20T02:46:44;11.00;10.00;4.00
26185;PMS7003;20067;48.764;9.176;2023-07-20T02:49:10;9.50;9.50;4.50
26185;PMS7003;20067;48.764;9.176;2023-07-20T02:51:35;11.75;10.50;5.00
26185;PMS7003;20067;48.764;9.176;2023-07-20T02:54:01;7.75;7.75;3.00
26185;PMS7003;20067;48.764;9.176;2023-07-20T02:56:26;6.25;6.25;2.25
26185;PMS7003;20067;48.764;9.176;2023-07-20T02:58:52;9.75;9.75;5.75
26185;PMS7003;20067;48.764;9.176;2023-07-20T03:01:18;8.25;8.25;3.00
26185;PMS7003;20067;48.764;9.176;2023-07-20T03:03:43;7.25;7.25;2.25
26185;PMS7003;20067;48.764;9.176;2023-07-20T03:06:15;11.00;11.00;5.00
26185;PMS7003;20067;48.764;9.176;2023-07-20T03:08:42;7.00;7.00;2.25
26185;PMS7003;20067;48.764;9.176;2023-07-20T03:11:15;10.25;9.00;2.75
26185;PMS7003;20067;48.764;9.176;2023-07-20T03:13:41;9.75;9.00;2.50
26185;PMS7003;20067;48.764;9.176;2023-07-20T03:16:08;9.25;9.25;2.00
26185;PMS7003;20067;48.764;9.176;2023-07-20T03:18:36;6.75;6.75;2.00
26185;PMS7003;20067;48.764;9.176;2023-07-20T03:21:03;10.25;8.00;2.00
26185;PMS7003;20067;48.764;9.176;2023-07-20T03:23:29;10.25;9.00;2.00
26185;PMS7003;20067;48.764;9.176;2023-07-20T03:25:55;9.00;9.00;2.00
26185;PMS7003;20067;48.764;9.176;2023-07-20T03:28:20;9.00;9.00;2.00
26185;PMS7003;20067;48.764;9.176;2023-07-20T03:30:46;14.00;13.50;7.75
26185;PMS7003;20067;48.764;9.176;2023-07-20T03:33:11;11.25;9.75;1.75
26185;PMS7003;20067;48.764;9.176;2023-07-20T03:35:37;13.25;13.25;4.75
26185;PMS7003;20067;48.764;9.176;2023-07-20T03:38:03;13.50;13.25;3.75
26185;PMS7003;20067;48.764;9.176;2023-07-20T03:40:29;12.50;12.50;4.25
26185;PMS7003;20067;48.764;9.176;2023-07-20T03:42:55;13.25;12.75;3.00
26185;PMS7003;20067;48.764;9.176;2023-07-20T03:45:20;9.50;9.50;2.00
26185;PMS7003;20067;48.764;9.176;2023-07-20T03:47:49;9.25;9.00;2.00
26185;PMS7003;20067;48.764;9.176;2023-07-20T03:50:14;10.00;9.00;3.00
26185;PMS7003;20067;48.764;9.176;2023-07-20T03:52:40;11.00;9.75;5.00
26185;PMS7003;20067;48.764;9.176;2023-07-20T03:55:06;8.50;8.50;5.00
26185;PMS7003;20067;48.764;9.176;2023-07-20T03:57:32;10.00;7.00;5.00
26185;PMS7003;20067;48.764;9.176;2023-07-20T03:59:58;10.00;9.00;5.00
26185;PMS7003;20067;48.764;9.176;2023-07-20T04:02:24;9.00;9.00;3.50
26185;PMS7003;20067;48.764;9.176;2023-07-20T04:04:50;8.75;8.75;3.00
26185;PMS7003;20067;48.764;9.176;2023-07-20T04:07:16;10.25;10.25;5.00
26185;PMS7003;20067;48.764;9.176;2023-07-20T04:09:42;12.50;11.25;5.50
26185;PMS7003;20067;48.764;9.176;2023-07-20T04:12:07;8.25;8.25;5.00
26185;PMS7003;20067;48.764;9.176;2023-07-20T04:14:33;9.00;9.00;3.00
26185;PMS7003;20067;48.764;9.176;2023-07-20T04:16:58;8.75;8.75;3.00
26185;PMS7003;20067;48.764;9.176;2023-07-20T04:19:25;11.00;9.00;3.00
26185;PMS7003;20067;48.764;9.176;2023-07-20T04:21:51;10.00;10.00;3.00
26185;PMS7003;20067;48.764;9.176;2023-07-20T04:24:16;11.75;9.00;3.00
26185;PMS7003;20067;48.764;9.176;2023-07-20T04:26:42;9.75;9.00;3.00
26185;PMS7003;20067;48.764;9.176;2023-07-20T04:29:08;8.00;8.00;4.00
26185;PMS7003;20067;48.764;9.176;2023-07-20T04:31:34;9.00;8.50;2.00
26185;PMS7003;20067;48.764;9.176;2023-07-20T04:34:00;9.50;9.00;4.50
26185;PMS7003;20067;48.764;9.176;2023-07-20T04:36:26;8.25;7.00;3.00
26185;PMS7003;20067;48.764;9.176;2023-07-20T04:38:51;11.75;8.25;5.00
26185;PMS7003;20067;48.764;9.176;2023-07-20T04:41:17;10.00;9.00;5.00
26185;PMS7003;20067;48.764;9.176;2023-07-20T04:43:43;11.00;8.00;5.25
26185;PMS7003;20067;48.764;9.176;2023-07-20T04:46:09;7.00;7.00;3.00
26185;PMS7003;20067;48.764;9.176;2023-07-20T04:48:36;11.00;8.25;3.00
26185;PMS7003;20067;48.764;9.176;2023-07-20T04:51:02;9.25;9.25;5.00
26185;PMS7003;20067;48.764;9.176;2023-07-20T04:53:28;9.00;8.00;3.00
26185;PMS7003;20067;48.764;9.176;2023-07-20T04:55:54;7.75;7.75;3.00
26185;PMS7003;20067;48.764;9.176;2023-07-20T04:58:20;7.00;7.00;2.00
26185;PMS7003;20067;48.764;9.176;2023-07-20T05:00:50;10.00;8.00;4.50
26185;PMS7003;20067;48.764;9.176;2023-07-20T05:03:16;8.00;8.00;5.00
26185;PMS7003;20067;48.764;9.176;2023-07-20T05:05:41;7.75;7.75;4.00
26185;PMS7003;20067;48.764;9.176;2023-07-20T05:08:07;9.50;9.25;3.50
26185;PMS7003;20067;48.764;9.176;2023-07-20T05:10:33;9.50;7.00;3.00
26185;PMS7003;20067;48.764;9.176;2023-07-20T05:12:59;12.25;10.00;3.00
26185;PMS7003;20067;48.764;9.176;2023-07-20T05:15:24;7.50;7.50;3.00
26185;PMS7003;20067;48.764;9.176;2023-07-20T05:17:51;10.75;8.00;5.00
26185;PMS7003;20067;48.764;9.176;2023-07-20T05:20:16;8.25;7.00;3.00
26185;PMS7003;20067;48.764;9.176;2023-07-20T05:22:42;9.50;7.00;3.00
26185;PMS7003;20067;48.764;9.176;2023-07-20T05:25:09;9.75;8.00;3.00
26185;PMS7003;20067;48.764;9.176;2023-07-20T05:27:38;11.00;8.50;3.00
26185;PMS7003;20067;48.764;9.176;2023-07-20T05:30:05;9.00;7.75;4.00
26185;PMS7003;20067;48.764;9.176;2023-07-20T05:32:32;10.00;8.00;3.00
26185;PMS7003;20067;48.764;9.176;2023-07-20T05:34:58;10.50;9.50;3.00
26185;PMS7003;20067;48.764;9.176;2023-07-20T05:37:23;7.00;7.00;3.00
26185;PMS7003;20067;48.764;9.176;2023-07-20T05:39:49;8.00;8.00;3.00
26185;PMS7003;20067;48.764;9.176;2023-07-20T05:42:15;7.25;7.25;3.00
26185;PMS7003;20067;48.764;9.176;2023-07-20T05:44:41;10.00;9.25;3.00
26185;PMS7003;20067;48.764;9.176;2023-07-20T05:47:07;10.50;9.75;2.25
26185;PMS7003;20067;48.764;9.176;2023-07-20T05:49:32;9.00;9.00;2.00
26185;PMS7003;20067;48.764;9.176;2023-07-20T05:51:59;10.75;9.75;2.75
26185;PMS7003;20067;48.764;9.176;2023-07-20T05:54:26;6.75;6.75;1.50
26185;PMS7003;20067;48.764;9.176;2023-07-20T05:56:52;12.75;12.75;6.00
26185;PMS7003;20067;48.764;9.176;2023-07-20T05:59:18;7.50;7.00;3.00
26185;PMS7003;20067;48.764;9.176;2023-07-20T06:01:45;12.00;11.25;4.00
26185;PMS7003;20067;48.764;9.176;2023-07-20T06:04:12;8.75;8.75;3.00
26185;PMS7003;20067;48.764;9.176;2023-07-20T06:06:37;7.25;7.25;3.00
26185;PMS7003;20067;48.764;9.176;2023-07-20T06:09:04;7.50;7.00;3.00
26185;PMS7003;20067;48.764;9.176;2023-07-20T06:11:32;7.00;7.00;2.00
26185;PMS7003;20067;48.764;9.176;2023-07-20T06:13:58;7.00;7.00;2.75
26185;PMS7003;20067;48.764;9.176;2023-07-20T06:16:23;9.50;7.00;2.00
26185;PMS7003;20067;48.764;9.176;2023-07-20T06:18:49;9.50;9.00;4.00
26185;PMS7003;20067;48.764;9.176;2023-07-20T06:21:15;7.75;7.75;2.00
26185;PMS7003;20067;48.764;9.176;2023-07-20T06:23:40;7.25;7.25;1.75
26185;PMS7003;20067;48.764;9.176;2023-07-20T06:26:06;8.50;8.00;3.00
26185;PMS7003;20067;48.764;9.176;2023-07-20T06:28:32;6.00;6.00;2.00
26185;PMS7003;20067;48.764;9.176;2023-07-20T06:30:59;7.00;7.00;3.00
26185;PMS7003;20067;48.764;9.176;2023-07-20T06:33:26;10.00;7.00;3.00
26185;PMS7003;20067;48.764;9.176;2023-07-20T06:35:51;6.75;6.75;3.50
26185;PMS7003;20067;48.764;9.176;2023-07-20T06:38:17;8.00;8.00;3.25
26185;PMS7003;20067;48.764;9.176;2023-07-20T06:40:43;8.00;7.25;3.75
26185;PMS7003;20067;48.764;9.176;2023-07-20T06:43:11;12.75;8.00;3.50
26185;PMS7003;20067;48.764;9.176;2023-07-20T06:45:37;10.50;8.00;3.25
26185;PMS7003;20067;48.764;9.176;2023-07-20T06:48:03;7.00;7.00;3.00
26185;PMS7003;20067;48.764;9.176;2023-07-20T06:50:29;8.00;7.75;3.50
26185;PMS7003;20067;48.764;9.176;2023-07-20T06:52:54;8.75;8.00;3.75
26185;PMS7003;20067;48.764;9.176;2023-07-20T06:55:20;9.25;8.25;4.00
26185;PMS7003;20067;48.764;9.176;2023-07-20T06:57:46;7.25;6.50;3.00
26185;PMS7003;20067;48.764;9.176;2023-07-20T07:00:12;8.00;8.00;3.00
26185;PMS7003;20067;48.764;9.176;2023-07-20T07:02:38;9.00;9.00;5.00
26185;PMS7003;20067;48.764;9.176;2023-07-20T07:05:04;9.00;8.00;2.00
26185;PMS7003;20067;48.764;9.176;2023-07-20T07:07:30;7.75;7.00;3.00
26185;PMS7003;20067;48.764;9.176;2023-07-20T07:09:56;9.00;8.00;3.00
26185;PMS7003;20067;48.764;9.176;2023-07-20T07:12:22;7.25;6.75;3.00
26185;PMS7003;20067;48.764;9.176;2023-07-20T07:14:47;7.50;7.50;3.25
26185;PMS7003;20067;48.764;9.176;2023-07-20T07:17:13;11.00;8.75;4.50
26185;PMS7003;20067;48.764;9.176;2023-07-20T07:19:39;7.00;7.00;3.00
26185;PMS7003;20067;48.764;9.176;2023-07-20T07:22:05;8.00;7.00;3.00
26185;PMS7003;20067;48.764;9.176;2023-07-20T07:24:31;8.75;7.00;2.75
26185;PMS7003;20067;48.764;9.176;2023-07-20T07:27:00;12.00;8.00;3.00
26185;PMS7003;20067;48.764;9.176;2023-07-20T07:29:26;7.50;7.00;4.00
26185;PMS7003;20067;48.764;9.176;2023-07-20T07:31:52;8.00;8.00;3.75
26185;PMS7003;20067;48.764;9.176;2023-07-20T07:34:17;7.75;7.75;3.00
26185;PMS7003;20067;48.764;9.176;2023-07-20T07:36:43;6.75;6.75;2.00
26185;PMS7003;20067;48.764;9.176;2023-07-20T07:39:09;9.50;9.00;5.25
26185;PMS7003;20067;48.764;9.176;2023-07-20T07:41:35;8.25;7.00;3.00
26185;PMS7003;20067;48.764;9.176;2023-07-20T07:44:01;9.00;8.50;3.25
26185;PMS7003;20067;48.764;9.176;2023-07-20T07:46:26;8.00;7.50;3.00
26185;PMS7003;20067;48.764;9.176;2023-07-20T07:48:52;11.00;8.75;3.25
26185;PMS7003;20067;48.764;9.176;2023-07-20T07:51:18;8.75;8.25;2.50
26185;PMS7003;20067;48.764;9.176;2023-07-20T07:53:45;10.50;9.25;4.00
26185;PMS7003;20067;48.764;9.176;2023-07-20T07:56:11;11.00;10.00;3.50
26185;PMS7003;20067;48.764;9.176;2023-07-20T07:58:37;7.00;7.00;2.25
26185;PMS7003;20067;48.764;9.176;2023-07-20T08:01:03;7.75;7.00;3.00
26185;PMS7003;20067;48.764;9.176;2023-07-20T08:03:29;7.50;7.50;3.00
26185;PMS7003;20067;48.764;9.176;2023-07-20T08:05:55;7.00;7.00;2.75
26185;PMS7003;20067;48.764;9.176;2023-07-20T08:08:21;7.00;6.50;2.00
26185;PMS7003;20067;48.764;9.176;2023-07-20T08:10:47;8.00;8.00;4.00
26185;PMS7003;20067;48.764;9.176;2023-07-20T08:13:13;7.50;7.00;3.00
26185;PMS7003;20067;48.764;9.176;2023-07-20T08:15:39;8.00;8.00;4.00
26185;PMS7003;20067;48.764;9.176;2023-07-20T08:18:07;10.25;10.25;7.00
26185;PMS7003;20067;48.764;9.176;2023-07-20T08:20:33;8.00;7.50;3.00
26185;PMS7003;20067;48.764;9.176;2023-07-20T08:23:00;9.50;9.00;4.00
26185;PMS7003;20067;48.764;9.176;2023-07-20T08:25:26;8.00;8.00;4.00
26185;PMS7003;20067;48.764;9.176;2023-07-20T08:27:52;7.00;7.00;3.00
26185;PMS7003;20067;48.764;9.176;2023-07-20T08:30:20;7.50;7.50;4.00
26185;PMS7003;20067;48.764;9.176;2023-07-20T08:32:48;11.00;8.00;3.25
26185;PMS7003;20067;48.764;9.176;2023-07-20T08:35:14;7.00;7.00;3.00
26185;PMS7003;20067;48.764;9.176;2023-07-20T08:37:40;7.50;7.00;3.00
26185;PMS7003;20067;48.764;9.176;2023-07-20T08:40:06;8.25;6.00;3.00
26185;PMS7003;20067;48.764;9.176;2023-07-20T08:42:33;9.75;8.00;3.25
26185;PMS7003;20067;48.764;9.176;2023-07-20T08:44:59;6.25;6.25;2.75
26185;PMS7003;20067;48.764;9.176;2023-07-20T08:47:26;8.00;8.00;3.00
26185;PMS7003;20067;48.764;9.176;2023-07-20T08:49:52;7.00;7.00;3.50
26185;PMS7003;20067;48.764;9.176;2023-07-20T08:52:20;9.75;8.25;3.50
26185;PMS7003;20067;48.764;9.176;2023-07-20T08:54:46;9.25;7.25;3.25
26185;PMS7003;20067;48.764;9.176;2023-07-20T08:57:13;10.25;8.75;4.00
26185;PMS7003;20067;48.764;9.176;2023-07-20T08:59:39;8.25;8.25;3.50
26185;PMS7003;20067;48.764;9.176;2023-07-20T09:02:06;8.00;7.00;3.00
26185;PMS7003;20067;48.764;9.176;2023-07-20T09:04:37;7.75;7.25;3.00
26185;PMS7003;20067;48.764;9.176;2023-07-20T09:07:02;8.75;8.75;3.00
26185;PMS7003;20067;48.764;9.176;2023-07-20T09:09:28;6.00;6.00;3.50
26185;PMS7003;20067;48.764;9.176;2023-07-20T09:11:54;8.50;6.00;4.00
26185;PMS7003;20067;48.764;9.176;2023-07-20T09:14:20;6.25;6.25;3.00
26185;PMS7003;20067;48.764;9.176;2023-07-20T09:16:55;5.00;5.00;3.00
26185;PMS7003;20067;48.764;9.176;2023-07-20T09:19:21;8.50;8.50;4.00
26185;PMS7003;20067;48.764;9.176;2023-07-20T09:21:50;8.00;8.00;4.00
26185;PMS7003;20067;48.764;9.176;2023-07-20T09:24:18;9.00;9.00;5.00
26185;PMS7003;20067;48.764;9.176;2023-07-20T09:26:45;8.75;7.00;3.00
26185;PMS7003;20067;48.764;9.176;2023-07-20T09:29:18;7.00;7.00;3.75
26185;PMS7003;20067;48.764;9.176;2023-07-20T09:32:00;9.75;9.00;4.75
26185;PMS7003;20067;48.764;9.176;2023-07-20T09:34:30;6.00;6.00;3.25
26185;PMS7003;20067;48.764;9.176;2023-07-20T09:36:59;6.00;6.00;3.00
26185;PMS7003;20067;48.764;9.176;2023-07-20T09:39:25;7.00;6.00;2.50
26185;PMS7003;20067;48.764;9.176;2023-07-20T09:41:51;6.75;6.50;3.25
26185;PMS7003;20067;48.764;9.176;2023-07-20T09:44:17;9.75;7.00;3.00
26185;PMS7003;20067;48.764;9.176;2023-07-20T09:46:48;6.75;6.75;4.00
26185;PMS7003;20067;48.764;9.176;2023-07-20T09:49:17;6.50;6.00;3.00
26185;PMS7003;20067;48.764;9.176;2023-07-20T09:51:42;9.75;7.00;3.00
26185;PMS7003;20067;48.764;9.176;2023-07-20T09:54:10;5.50;5.50;3.00
26185;PMS7003;20067;48.764;9.176;2023-07-20T09:56:38;5.50;5.50;3.00
26185;PMS7003;20067;48.764;9.176;2023-07-20T09:59:05;7.00;6.00;3.00
26185;PMS7003;20067;48.764;9.176;2023-07-20T10:01:31;5.75;5.75;3.00
26185;PMS7003;20067;48.764;9.176;2023-07-20T10:03:59;6.25;6.00;3.00
26185;PMS7003;20067;48.764;9.176;2023-07-20T10:06:29;4.75;4.50;2.00
26185;PMS7003;20067;48.764;9.176;2023-07-20T10:09:00;11.00;10.25;5.00
26185;PMS7003;20067;48.764;9.176;2023-07-20T10:11:31;9.00;5.50;3.00
26185;PMS7003;20067;48.764;9.176;2023-07-20T10:13:59;8.00;7.00;4.00
26185;PMS7003;20067;48.764;9.176;2023-07-20T10:16:31;6.00;6.00;4.00
26185;PMS7003;20067;48.764;9.176;2023-07-20T10:22:03;5.25;5.00;3.00
26185;PMS7003;20067;48.764;9.176;2023-07-20T10:24:33;9.25;8.25;4.00
26185;PMS7003;20067;48.764;9.176;2023-07-20T10:27:00;6.00;6.00;3.00
26185;PMS7003;20067;48.764;9.176;2023-07-20T10:29:26;6.75;6.00;3.00
26185;PMS7003;20067;48.764;9.176;2023-07-20T10:31:54;6.50;5.50;3.25
26185;PMS7003;20067;48.764;9.176;2023-07-20T10:34:21;6.00;6.00;3.75
26185;PMS7003;20067;48.764;9.176;2023-07-20T10:36:47;5.00;5.00;2.00
26185;PMS7003;20067;48.764;9.176;2023-07-20T10:39:26;6.00;6.00;3.00
26185;PMS7003;20067;48.764;9.176;2023-07-20T10:41:59;5.00;5.00;3.00
26185;PMS7003;20067;48.764;9.176;2023-07-20T10:44:29;5.50;5.50;2.00
26185;PMS7003;20067;48.764;9.176;2023-07-20T10:46:58;7.00;5.50;2.75
26185;PMS7003;20067;48.764;9.176;2023-07-20T10:49:25;6.75;6.75;3.00
26185;PMS7003;20067;48.764;9.176;2023-07-20T10:51:59;5.25;5.00;2.25
26185;PMS7003;20067;48.764;9.176;2023-07-20T10:56:50;5.75;5.00;2.75
26185;PMS7003;20067;48.764;9.176;2023-07-20T11:01:57;7.00;6.25;3.00
26185;PMS7003;20067;48.764;9.176;2023-07-20T11:04:39;5.00;5.00;2.00
26185;PMS7003;20067;48.764;9.176;2023-07-20T11:07:06;6.75;6.00;3.00
26185;PMS7003;20067;48.764;9.176;2023-07-20T11:09:38;5.00;5.00;2.00
26185;PMS7003;20067;48.764;9.176;2023-07-20T11:12:14;4.50;4.50;2.00
26185;PMS7003;20067;48.764;9.176;2023-07-20T11:14:54;5.50;5.50;2.00
26185;PMS7003;20067;48.764;9.176;2023-07-20T11:17:28;4.00;4.00;2.00
26185;PMS7003;20067;48.764;9.176;2023-07-20T11:19:58;4.25;4.25;1.75
26185;PMS7003;20067;48.764;9.176;2023-07-20T11:22:28;4.00;4.00;2.00
26185;PMS7003;20067;48.764;9.176;2023-07-20T11:24:56;5.75;5.00;2.00
26185;PMS7003;20067;48.764;9.176;2023-07-20T11:27:23;4.00;4.00;1.00
26185;PMS7003;20067;48.764;9.176;2023-07-20T11:29:49;5.00;5.00;2.00
26185;PMS7003;20067;48.764;9.176;2023-07-20T11:32:21;6.00;5.25;2.00
26185;PMS7003;20067;48.764;9.176;2023-07-20T11:34:50;9.00;6.00;3.00
26185;PMS7003;20067;48.764;9.176;2023-07-20T11:37:16;5.00;5.00;3.00
26185;PMS7003;20067;48.764;9.176;2023-07-20T11:39:43;4.25;4.25;2.00
26185;PMS7003;20067;48.764;9.176;2023-07-20T11:42:08;6.50;6.50;3.00
26185;PMS7003;20067;48.764;9.176;2023-07-20T11:44:34;7.00;7.00;3.00
26185;PMS7003;20067;48.764;9.176;2023-07-20T11:49:29;7.25;6.50;2.75
26185;PMS7003;20067;48.764;9.176;2023-07-20T11:51:55;6.75;6.75;2.75
26185;PMS7003;20067;48.764;9.176;2023-07-20T11:54:22;6.50;6.00;2.00
26185;PMS7003;20067;48.764;9.176;2023-07-20T11:56:53;5.00;5.00;2.00
26185;PMS7003;20067;48.764;9.176;2023-07-20T11:59:19;6.50;6.50;2.25
26185;PMS7003;20067;48.764;9.176;2023-07-20T12:01:45;7.00;7.00;4.00
26185;PMS7003;20067;48.764;9.176;2023-07-20T12:04:11;6.00;6.00;3.00
26185;PMS7003;20067;48.764;9.176;2023-07-20T12:06:37;7.00;6.00;3.00
26185;PMS7003;20067;48.764;9.176;2023-07-20T12:11:37;5.50;5.50;3.00
26185;PMS7003;20067;48.764;9.176;2023-07-20T12:14:04;6.75;6.75;3.00
26185;PMS7003;20067;48.764;9.176;2023-07-20T12:16:32;6.75;5.00;2.00
26185;PMS7003;20067;48.764;9.176;2023-07-20T12:19:04;5.75;5.75;2.00
26185;PMS7003;20067;48.764;9.176;2023-07-20T12:21:36;4.00;4.00;1.00
26185;PMS7003;20067;48.764;9.176;2023-07-20T12:24:05;6.00;5.75;3.00
26185;PMS7003;20067;48.764;9.176;2023-07-20T12:26:32;5.00;5.00;2.00
26185;PMS7003;20067;48.764;9.176;2023-07-20T12:28:58;6.75;5.00;2.00
26185;PMS7003;20067;48.764;9.176;2023-07-20T12:31:25;4.25;4.25;1.75
26185;PMS7003;20067;48.764;9.176;2023-07-20T12:33:51;6.00;6.00;3.00
26185;PMS7003;20067;48.764;9.176;2023-07-20T12:36:20;7.00;6.75;3.75
26185;PMS7003;20067;48.764;9.176;2023-07-20T12:38:45;5.00;5.00;2.75
26185;PMS7003;20067;48.764;9.176;2023-07-20T12:41:12;6.00;6.00;3.00
26185;PMS7003;20067;48.764;9.176;2023-07-20T12:43:41;7.00;6.00;3.00
26185;PMS7003;20067;48.764;9.176;2023-07-20T12:46:07;5.50;5.50;2.75
26185;PMS7003;20067;48.764;9.176;2023-07-20T12:48:35;8.50;7.75;4.75
26185;PMS7003;20067;48.764;9.176;2023-07-20T12:51:02;7.00;7.00;4.00
26185;PMS7003;20067;48.764;9.176;2023-07-20T12:53:28;6.00;6.00;3.50
26185;PMS7003;20067;48.764;9.176;2023-07-20T12:55:58;4.25;4.25;2.00
26185;PMS7003;20067;48.764;9.176;2023-07-20T12:58:24;8.75;8.75;6.00
26185;PMS7003;20067;48.764;9.176;2023-07-20T13:00:50;7.50;7.00;3.00
26185;PMS7003;20067;48.764;9.176;2023-07-20T13:03:16;6.25;6.25;3.75
26185;PMS7003;20067;48.764;9.176;2023-07-20T13:05:44;6.50;6.50;4.00
26185;PMS7003;20067;48.764;9.176;2023-07-20T13:08:10;5.00;5.00;2.00
26185;PMS7003;20067;48.764;9.176;2023-07-20T13:10:36;9.00;8.00;5.00
26185;PMS7003;20067;48.764;9.176;2023-07-20T13:13:03;6.25;6.25;3.00
26185;PMS7003;20067;48.764;9.176;2023-07-20T13:15:29;4.25;4.25;2.00
26185;PMS7003;20067;48.764;9.176;2023-07-20T13:17:59;5.00;5.00;2.00
26185;PMS7003;20067;48.764;9.176;2023-07-20T13:20:25;6.25;6.00;3.00
26185;PMS7003;20067;48.764;9.176;2023-07-20T13:22:53;5.75;4.75;1.00
26185;PMS7003;20067;48.764;9.176;2023-07-20T13:25:18;5.00;5.00;2.00
26185;PMS7003;20067;48.764;9.176;2023-07-20T13:27:44;5.25;5.25;2.50
26185;PMS7003;20067;48.764;9.176;2023-07-20T13:30:10;8.00;6.50;4.00
26185;PMS7003;20067;48.764;9.176;2023-07-20T13:32:41;6.00;6.00;3.50
26185;PMS7003;20067;48.764;9.176;2023-07-20T13:35:08;6.00;6.00;3.25
26185;PMS7003;20067;48.764;9.176;2023-07-20T13:37:36;7.00;7.00;4.00
26185;PMS7003;20067;48.764;9.176;2023-07-20T13:40:02;5.75;5.25;3.25
26185;PMS7003;20067;48.764;9.176;2023-07-20T13:42:30;6.75;5.75;3.00
26185;PMS7003;20067;48.764;9.176;2023-07-20T13:44:56;7.00;6.00;3.25
26185;PMS7003;20067;48.764;9.176;2023-07-20T13:47:22;5.75;5.00;2.00
26185;PMS7003;20067;48.764;9.176;2023-07-20T13:49:47;5.00;5.00;2.00
26185;PMS7003;20067;48.764;9.176;2023-07-20T13:52:13;6.25;6.25;4.00
26185;PMS7003;20067;48.764;9.176;2023-07-20T13:54:39;5.25;5.25;2.00
26185;PMS7003;20067;48.764;9.176;2023-07-20T13:57:08;5.75;5.75;2.00
26185;PMS7003;20067;48.764;9.176;2023-07-20T13:59:34;10.25;10.25;6.00
26185;PMS7003;20067;48.764;9.176;2023-07-20T14:02:03;13.50;12.50;7.75
26185;PMS7003;20067;48.764;9.176;2023-07-20T14:04:29;7.00;7.00;3.75
26185;PMS7003;20067;48.764;9.176;2023-07-20T14:06:54;8.75;8.25;4.50
26185;PMS7003;20067;48.764;9.176;2023-07-20T14:09:20;5.00;5.00;2.75
26185;PMS7003;20067;48.764;9.176;2023-07-20T14:11:45;4.00;4.00;1.00
26185;PMS7003;20067;48.764;9.176;2023-07-20T14:14:11;6.75;4.75;2.00
26185;PMS7003;20067;48.764;9.176;2023-07-20T14:16:37;5.00;5.00;2.00
26185;PMS7003;20067;48.764;9.176;2023-07-20T14:19:03;5.00;5.00;2.00
26185;PMS7003;20067;48.764;9.176;2023-07-20T14:21:30;4.50;4.50;1.00
26185;PMS7003;20067;48.764;9.176;2023-07-20T14:23:56;5.00;5.00;3.00
26185;PMS7003;20067;48.764;9.176;2023-07-20T14:26:22;4.25;4.25;1.75
26185;PMS7003;20067;48.764;9.176;2023-07-20T14:28:48;4.75;4.75;1.00
26185;PMS7003;20067;48.764;9.176;2023-07-20T14:31:14;4.50;4.00;1.00
26185;PMS7003;20067;48.764;9.176;2023-07-20T14:33:40;4.50;4.50;1.75
26185;PMS7003;20067;48.764;9.176;2023-07-20T14:36:05;6.00;5.00;2.00
26185;PMS7003;20067;48.764;9.176;2023-07-20T14:38:31;8.00;7.25;4.00
26185;PMS7003;20067;48.764;9.176;2023-07-20T14:40:58;6.25;6.00;3.00
26185;PMS7003;20067;48.764;9.176;2023-07-20T14:43:24;5.75;5.75;2.75